UKLL/LWO METAR and TAF weather

Enter ICAO airport designator
Station Type Date Time Source
UKLL METAR 2021/09/20 05:00 UTC NOAA

UKLL 200500Z 30003MPS 280V350 9999 BKN009 BKN025CB 06/06 Q1013 R31/290055 NOSIG


Station Type Date Time Source
UKLL Decoded METAR 2021/09/20 05:00 UTC NOAA

L'Viv, Ukraine (UKLL) 49-49N 023-57E 323M
Sep 20, 2021 - 01:00 AM EDT / 2021.09.20 0500 UTC
Wind: from the WNW (300 degrees) at 7 MPH (6 KT) (direction variable):0
Visibility: greater than 7 mile(s):0
Sky conditions: mostly cloudy
Weather: Cumulonimbus clouds observed
Temperature: 42 F (6 C)
Dew Point: 42 F (6 C)
Relative Humidity: 100%
Pressure (altimeter): 29.91 in. Hg (1013 hPa)
ob: UKLL 200500Z 30003MPS 280V350 9999 BKN009 BKN025CB 06/06 Q1013 R31/290055 NOSIG
cycle: 5

Station Type Date Time Source
UKLL TAF 2021/09/20 06:15 UTC NOAA

TAF UKLL 200504Z 2006/2106 30004MPS 5000 BR BKN007 BKN020CB
TEMPO 2006/2106 32006G12MPS 2100 -SHRA SCT003 BKN004 BKN017CB

Example: see airport list